Jeffrey City, Wyoming
Current Conditions -  °F | °C
As of 11:55 AM on Thursday 30 Oct 2014 (Local Time) from KFWZ Reporting Station
Clear Clear  
Wind Chill: 50°   Ceiling: Unl
Heat Index: 50°   Visibility: 10mi
Dew Point: 18°   Wind: 8mph
Humidity: 28%   Direction: 250°WSW
Pressure: 30.33"   Gusts: NA
Location:  42.49°N, 107.83°W
Report Text: KFWZ 301755Z AUTO 25007KT 10SM CLR 10/M08 A3033 RMK AO2
Loading
Personal Weather Stations






























Interactive Weather Map
Tropical Storm Tracking
New forecast layout! Learn more

10-Day Weather Forecast

Advertisements
Track Severe Weather on mobile